Time;durP1;ratioP1;P1;durP2;ratioP2;P2;SDS_P1;SDS_P2;PMS_P1;PMS_P2;Temp;Humidity;BMP_temperature;BMP_pressure;BME280_temperature;BME280_humidity;BME280_pressure;Samples;Min_cycle;Max_cycle;Signal;HPM_P1;HPM_P2
2022/12/24 00:00:13;;;;;;;3.25;3.05;;;;;;;;;;5033170;28;20045;-87
2022/12/24 00:02:41;;;;;;;1.60;1.58;;;;;;;;;;5033292;28;20107;-87
2022/12/24 00:05:08;;;;;;;3.28;3.08;;;;;;;;;;5033189;28;20123;-87
2022/12/24 00:07:34;;;;;;;4.28;3.92;;;;;;;;;;5033057;28;20046;-87
2022/12/24 00:10:00;;;;;;;2.47;2.38;;;;;;;;;;5033275;28;20046;-87
2022/12/24 00:12:27;;;;;;;3.58;3.38;;;;;;;;;;5030657;28;20053;-87
2022/12/24 00:14:53;;;;;;;2.83;2.67;;;;;;;;;;5032878;28;20498;-87
2022/12/24 00:17:20;;;;;;;3.35;3.15;;;;;;;;;;5033070;28;20101;-87
2022/12/24 00:19:48;;;;;;;2.40;1.98;;;;;;;;;;5033036;28;20057;-88
2022/12/24 00:22:14;;;;;;;3.00;2.80;;;;;;;;;;5033072;28;20049;-87
2022/12/24 00:24:41;;;;;;;4.05;3.75;;;;;;;;;;5033034;28;20045;-87
2022/12/24 00:27:07;;;;;;;5.28;4.82;;;;;;;;;;5033116;28;20099;-88
2022/12/24 00:29:34;;;;;;;4.15;3.92;;;;;;;;;;5043156;28;20049;-87
2022/12/24 00:32:00;;;;;;;8.10;3.08;;;;;;;;;;5052654;28;20048;-88
2022/12/24 00:34:27;;;;;;;1.92;1.83;;;;;;;;;;5052548;28;20065;-88
2022/12/24 00:36:55;;;;;;;6.28;5.57;;;;;;;;;;5052433;28;20052;-88
2022/12/24 00:39:21;;;;;;;7.13;5.97;;;;;;;;;;5052115;28;20099;-88
2022/12/24 00:41:48;;;;;;;4.70;4.45;;;;;;;;;;5052504;28;20561;-88
2022/12/24 00:44:14;;;;;;;4.82;4.35;;;;;;;;;;5049476;28;20547;-88
2022/12/24 00:46:41;;;;;;;2.15;2.03;;;;;;;;;;5032774;28;20049;-88
2022/12/24 00:49:08;;;;;;;5.75;4.78;;;;;;;;;;5032576;28;20111;-89
2022/12/24 00:51:35;;;;;;;2.65;2.55;;;;;;;;;;5032892;28;20103;-88
2022/12/24 00:54:03;;;;;;;2.90;2.78;;;;;;;;;;5032943;28;20589;-88
2022/12/24 00:56:30;;;;;;;3.45;3.25;;;;;;;;;;5032877;28;20384;-88
2022/12/24 00:58:57;;;;;;;4.63;3.83;;;;;;;;;;5032352;28;20054;-88
2022/12/24 01:01:23;;;;;;;4.65;1.92;;;;;;;;;;5041641;28;20087;-88
2022/12/24 01:03:50;;;;;;;4.07;2.65;;;;;;;;;;5052566;28;20549;-89
2022/12/24 01:06:16;;;;;;;1.60;1.58;;;;;;;;;;5053047;28;20056;-89
2022/12/24 01:08:43;;;;;;;4.60;2.83;;;;;;;;;;5052490;28;20491;-89
2022/12/24 01:11:11;;;;;;;3.25;3.05;;;;;;;;;;5052822;28;20049;-89
2022/12/24 01:13:39;;;;;;;9.68;9.35;;;;;;;;;;5052402;28;20709;-89
2022/12/24 01:16:13;;;;;;;2.28;2.15;;;;;;;;;;5052531;28;20119;-88
2022/12/24 01:18:39;;;;;;;2.35;2.25;;;;;;;;;;5034627;28;20560;-87
2022/12/24 01:21:05;;;;;;;3.92;3.72;;;;;;;;;;5032613;28;20049;-88
2022/12/24 01:23:32;;;;;;;2.28;2.17;;;;;;;;;;5032272;28;20057;-88
2022/12/24 01:26:00;;;;;;;2.53;2.10;;;;;;;;;;5032228;28;20552;-88
2022/12/24 01:28:28;;;;;;;2.83;2.67;;;;;;;;;;5032128;28;20048;-88
2022/12/24 01:30:54;;;;;;;1.98;1.88;;;;;;;;;;5032436;28;20045;-88
2022/12/24 01:33:21;;;;;;;4.38;3.38;;;;;;;;;;5031498;28;20131;-88
2022/12/24 01:35:47;;;;;;;1.63;1.52;;;;;;;;;;5034009;28;20107;-88
2022/12/24 01:38:15;;;;;;;4.25;4.05;;;;;;;;;;5032492;28;20111;-88
2022/12/24 01:43:27;;;;;;;3.47;3.28;;;;;;;;;;5032227;28;20063;-87
2022/12/24 01:45:56;;;;;;;3.55;3.35;;;;;;;;;;5031726;28;20045;-88
2022/12/24 01:48:25;;;;;;;1.77;1.67;;;;;;;;;;5032248;28;20084;-87
2022/12/24 01:50:55;;;;;;;4.50;4.20;;;;;;;;;;5031712;28;20103;-88
2022/12/24 01:53:22;;;;;;;5.95;5.43;;;;;;;;;;5029322;28;20415;-88
2022/12/24 01:55:48;;;;;;;5.07;4.63;;;;;;;;;;5034660;28;20495;-88
2022/12/24 01:58:16;;;;;;;2.92;2.75;;;;;;;;;;5035735;28;20155;-87
2022/12/24 02:00:42;;;;;;;3.10;2.13;;;;;;;;;;5035384;28;20541;-88
2022/12/24 02:03:10;;;;;;;3.20;2.95;;;;;;;;;;5035656;28;20104;-88
2022/12/24 02:05:40;;;;;;;1.88;1.77;;;;;;;;;;5035566;28;20104;-88
2022/12/24 02:08:07;;;;;;;2.00;1.88;;;;;;;;;;5035574;28;20099;-88
2022/12/24 02:10:34;;;;;;;6.05;4.45;;;;;;;;;;5040826;28;20107;-88
2022/12/24 02:13:01;;;;;;;3.33;3.13;;;;;;;;;;5035523;28;20050;-88
2022/12/24 02:15:29;;;;;;;1.85;1.75;;;;;;;;;;5035395;28;20099;-88
2022/12/24 02:17:59;;;;;;;4.72;4.30;;;;;;;;;;5035345;28;20103;-88
2022/12/24 02:20:44;;;;;;;5.93;2.28;;;;;;;;;;5035225;28;20045;-88
2022/12/24 02:23:21;;;;;;;1.73;1.70;;;;;;;;;;5035523;28;20046;-88
2022/12/24 02:25:58;;;;;;;2.25;2.15;;;;;;;;;;5034921;28;20071;-88
2022/12/24 02:28:31;;;;;;;2.10;2.00;;;;;;;;;;5038556;28;20100;-88
2022/12/24 02:31:00;;;;;;;2.78;2.65;;;;;;;;;;5034880;28;20083;-88
2022/12/24 02:33:29;;;;;;;5.80;3.65;;;;;;;;;;5035006;28;20045;-88
2022/12/24 02:35:59;;;;;;;2.78;2.58;;;;;;;;;;5034742;28;20060;-88
2022/12/24 02:38:29;;;;;;;1.52;1.42;;;;;;;;;;5034493;28;20111;-89
2022/12/24 02:40:57;;;;;;;2.78;2.67;;;;;;;;;;5034750;28;20050;-88
2022/12/24 02:43:26;;;;;;;2.35;2.25;;;;;;;;;;5033964;28;20053;-88
2022/12/24 02:45:56;;;;;;;2.95;2.85;;;;;;;;;;5034810;28;20053;-88
2022/12/24 02:48:24;;;;;;;2.20;2.10;;;;;;;;;;5034465;28;20672;-87
2022/12/24 02:50:54;;;;;;;4.65;3.95;;;;;;;;;;5034554;28;20104;-88
2022/12/24 02:53:21;;;;;;;3.33;3.17;;;;;;;;;;5049819;28;20102;-88
2022/12/24 02:55:53;;;;;;;1.63;1.60;;;;;;;;;;5054660;28;20465;-88
2022/12/24 02:58:26;;;;;;;2.72;2.58;;;;;;;;;;5054195;28;20099;-88
2022/12/24 03:01:09;;;;;;;3.72;3.42;;;;;;;;;;5054396;28;20060;-87
2022/12/24 03:03:39;;;;;;;3.20;2.72;;;;;;;;;;5054237;28;20057;-88
2022/12/24 03:06:11;;;;;;;2.58;2.47;;;;;;;;;;5053070;28;20048;-88
2022/12/24 03:08:42;;;;;;;4.80;4.60;;;;;;;;;;5047881;28;20049;-89
2022/12/24 03:11:10;;;;;;;4.93;4.50;;;;;;;;;;5034303;28;20049;-88
2022/12/24 03:13:37;;;;;;;5.20;4.75;;;;;;;;;;5034317;28;20470;-88
2022/12/24 03:16:04;;;;;;;7.25;4.20;;;;;;;;;;5034600;28;20049;-88
2022/12/24 03:18:31;;;;;;;4.57;4.05;;;;;;;;;;5034092;28;20099;-88
2022/12/24 03:21:01;;;;;;;3.17;2.97;;;;;;;;;;5033761;28;20502;-88
2022/12/24 03:23:28;;;;;;;2.30;2.20;;;;;;;;;;5034077;28;20103;-88
2022/12/24 03:25:54;;;;;;;2.10;2.00;;;;;;;;;;5018137;28;20050;-88
2022/12/24 03:28:24;;;;;;;1.75;1.65;;;;;;;;;;5014090;28;20373;-87
2022/12/24 03:30:51;;;;;;;1.95;1.85;;;;;;;;;;5014307;28;20101;-88
2022/12/24 03:33:17;;;;;;;3.00;2.90;;;;;;;;;;5014735;28;20723;-88
2022/12/24 03:35:44;;;;;;;4.55;3.05;;;;;;;;;;5013886;28;20052;-88
2022/12/24 03:38:12;;;;;;;4.07;3.88;;;;;;;;;;5013813;28;20057;-88
2022/12/24 03:40:38;;;;;;;1.75;1.65;;;;;;;;;;5016660;28;20050;-88
2022/12/24 03:43:05;;;;;;;3.80;3.50;;;;;;;;;;5034940;28;20049;-88
2022/12/24 03:45:31;;;;;;;2.97;2.67;;;;;;;;;;5033351;28;20053;-88
2022/12/24 03:47:58;;;;;;;4.43;3.75;;;;;;;;;;5033846;28;20100;-88
2022/12/24 03:50:24;;;;;;;3.85;2.20;;;;;;;;;;5033458;28;20099;-88
2022/12/24 03:52:50;;;;;;;3.03;2.83;;;;;;;;;;5033188;28;20548;-88
2022/12/24 03:55:18;;;;;;;5.03;4.60;;;;;;;;;;5033642;28;20103;-88
2022/12/24 03:57:45;;;;;;;4.15;3.92;;;;;;;;;;5033265;28;20509;-88
2022/12/24 04:00:12;;;;;;;1.40;1.30;;;;;;;;;;5033072;28;20099;-88
2022/12/24 04:02:38;;;;;;;3.35;3.22;;;;;;;;;;5033374;28;20111;-87
2022/12/24 04:05:06;;;;;;;2.90;2.75;;;;;;;;;;5033389;28;20046;-88
2022/12/24 04:07:33;;;;;;;2.65;2.55;;;;;;;;;;5033407;28;20053;-88
2022/12/24 04:10:00;;;;;;;1.88;1.77;;;;;;;;;;5033615;28;20056;-88
2022/12/24 04:12:28;;;;;;;3.60;3.40;;;;;;;;;;5033097;28;20045;-88
2022/12/24 04:14:54;;;;;;;5.57;3.50;;;;;;;;;;5028314;28;20088;-88
2022/12/24 04:17:21;;;;;;;1.63;1.50;;;;;;;;;;5013329;28;20460;-88
2022/12/24 04:19:47;;;;;;;7.15;5.60;;;;;;;;;;5013267;28;20046;-88
2022/12/24 04:22:14;;;;;;;4.18;3.80;;;;;;;;;;5013083;28;20046;-88
2022/12/24 04:24:40;;;;;;;3.30;3.10;;;;;;;;;;5013456;28;20478;-89
2022/12/24 04:27:07;;;;;;;3.15;2.95;;;;;;;;;;5013283;28;20103;-89
2022/12/24 04:29:34;;;;;;;3.63;3.33;;;;;;;;;;5013295;28;20051;-89
2022/12/24 04:32:01;;;;;;;1.95;1.83;;;;;;;;;;5028027;28;20073;-89
2022/12/24 04:34:28;;;;;;;3.42;3.20;;;;;;;;;;5033928;28;20471;-89
2022/12/24 04:36:54;;;;;;;3.92;3.25;;;;;;;;;;5032824;28;20053;-89
2022/12/24 04:39:21;;;;;;;3.30;3.05;;;;;;;;;;5032918;28;20099;-89
2022/12/24 04:41:47;;;;;;;3.30;3.17;;;;;;;;;;5032932;28;20049;-89
2022/12/24 04:44:14;;;;;;;3.45;3.25;;;;;;;;;;5032698;28;20457;-89
2022/12/24 04:46:42;;;;;;;5.40;4.97;;;;;;;;;;5032868;28;20095;-87
2022/12/24 04:49:08;;;;;;;1.52;1.42;;;;;;;;;;5032649;28;20483;-87
2022/12/24 04:51:35;;;;;;;2.28;2.08;;;;;;;;;;5048317;28;20049;-87
2022/12/24 04:54:01;;;;;;;3.67;3.25;;;;;;;;;;5052557;28;20052;-87
2022/12/24 04:56:29;;;;;;;5.78;5.25;;;;;;;;;;5052910;28;20072;-88
2022/12/24 04:58:56;;;;;;;3.83;3.28;;;;;;;;;;5052389;28;20095;-88
2022/12/24 05:01:23;;;;;;;6.68;6.18;;;;;;;;;;5052566;28;20049;-87
2022/12/24 05:03:51;;;;;;;2.45;2.35;;;;;;;;;;5052492;28;20106;-87
2022/12/24 05:06:19;;;;;;;2.83;2.60;;;;;;;;;;5052025;28;20082;-89
2022/12/24 05:08:45;;;;;;;4.03;3.78;;;;;;;;;;5035603;28;20501;-87
2022/12/24 05:11:13;;;;;;;5.32;4.97;;;;;;;;;;5032244;28;20045;-88
2022/12/24 05:13:39;;;;;;;2.70;2.47;;;;;;;;;;5032530;28;20053;-88
2022/12/24 05:16:06;;;;;;;6.28;4.65;;;;;;;;;;5032327;28;20495;-89
2022/12/24 05:18:32;;;;;;;5.18;4.82;;;;;;;;;;5032614;28;20054;-89
2022/12/24 05:21:00;;;;;;;1.42;1.38;;;;;;;;;;5032675;28;20427;-89
2022/12/24 05:26:23;;;;;;;3.92;3.72;;;;;;;;;;5052682;28;20056;-88
2022/12/24 05:28:50;;;;;;;2.45;2.25;;;;;;;;;;5052232;28;20110;-88
2022/12/24 05:31:16;;;;;;;4.35;4.15;;;;;;;;;;5055701;28;20494;-87
2022/12/24 05:33:43;;;;;;;4.88;4.45;;;;;;;;;;5056013;28;20484;-88
2022/12/24 05:36:11;;;;;;;4.57;2.70;;;;;;;;;;5055588;28;20052;-88
2022/12/24 05:38:38;;;;;;;4.15;3.00;;;;;;;;;;5055289;28;20138;-89
2022/12/24 05:41:04;;;;;;;2.65;2.45;;;;;;;;;;5052102;28;20110;-89
2022/12/24 05:43:31;;;;;;;1.73;1.67;;;;;;;;;;5055140;28;20457;-88
2022/12/24 05:45:58;;;;;;;6.57;6.13;;;;;;;;;;5055714;28;20107;-89
2022/12/24 05:48:24;;;;;;;2.97;2.83;;;;;;;;;;5055643;28;20045;-88
2022/12/24 05:50:51;;;;;;;3.25;3.05;;;;;;;;;;5055183;28;20107;-88
2022/12/24 05:53:19;;;;;;;2.20;2.08;;;;;;;;;;5055696;28;20102;-89
2022/12/24 05:55:45;;;;;;;2.17;2.08;;;;;;;;;;5052908;28;20115;-88
2022/12/24 05:58:12;;;;;;;6.63;3.75;;;;;;;;;;5051026;28;20053;-87
2022/12/24 06:00:38;;;;;;;3.72;3.42;;;;;;;;;;5055474;28;20083;-90
2022/12/24 06:03:05;;;;;;;5.13;4.63;;;;;;;;;;5055221;28;20053;-88
2022/12/24 06:05:31;;;;;;;4.88;4.60;;;;;;;;;;5055052;28;20098;-88
2022/12/24 06:07:58;;;;;;;5.50;2.72;;;;;;;;;;5015916;28;20054;-88
2022/12/24 06:10:25;;;;;;;9.30;5.93;;;;;;;;;;5015995;28;20103;-88
2022/12/24 06:12:52;;;;;;;5.63;5.18;;;;;;;;;;5024701;28;20050;-88
2022/12/24 06:15:18;;;;;;;3.20;3.03;;;;;;;;;;5034908;28;20057;-88
2022/12/24 06:17:45;;;;;;;3.25;3.00;;;;;;;;;;5034499;28;20542;-88
2022/12/24 06:20:11;;;;;;;5.75;5.50;;;;;;;;;;5035135;28;20049;-89
2022/12/24 06:22:38;;;;;;;1.73;1.63;;;;;;;;;;5034523;28;20069;-86
2022/12/24 06:25:05;;;;;;;14.13;7.43;;;;;;;;;;5034840;28;20053;-87
2022/12/24 06:27:33;;;;;;;5.13;4.72;;;;;;;;;;5035002;28;20053;-88
2022/12/24 06:29:59;;;;;;;5.72;4.78;;;;;;;;;;5034416;28;20355;-88
2022/12/24 06:32:26;;;;;;;6.40;5.90;;;;;;;;;;5033118;28;20045;-87
2022/12/24 06:34:52;;;;;;;3.17;2.10;;;;;;;;;;5034951;28;20049;-88
2022/12/24 06:37:19;;;;;;;3.30;2.78;;;;;;;;;;5023601;28;20062;-89
2022/12/24 06:39:45;;;;;;;1.45;1.45;;;;;;;;;;5014809;28;20050;-88
2022/12/24 06:42:12;;;;;;;4.72;4.32;;;;;;;;;;5014968;28;20122;-89
2022/12/24 06:44:40;;;;;;;2.00;1.77;;;;;;;;;;5015086;28;20046;-88
2022/12/24 06:47:06;;;;;;;7.38;6.80;;;;;;;;;;5027367;28;20108;-88
2022/12/24 06:49:33;;;;;;;3.00;2.88;;;;;;;;;;5034225;28;20049;-88
2022/12/24 06:51:59;;;;;;;5.07;4.78;;;;;;;;;;5034872;28;20618;-89
2022/12/24 06:54:26;;;;;;;4.03;3.72;;;;;;;;;;5034663;28;20049;-88
2022/12/24 06:56:52;;;;;;;4.65;4.35;;;;;;;;;;5034230;28;20053;-89
2022/12/24 06:59:19;;;;;;;2.63;2.53;;;;;;;;;;5034187;28;20495;-88
2022/12/24 07:01:47;;;;;;;4.65;4.25;;;;;;;;;;5035924;28;20095;-88
2022/12/24 07:04:13;;;;;;;4.28;3.90;;;;;;;;;;5034011;28;20049;-88
2022/12/24 07:06:40;;;;;;;1.65;1.58;;;;;;;;;;5034672;28;20107;-88
2022/12/24 07:09:07;;;;;;;2.35;2.25;;;;;;;;;;5034462;28;20083;-88
2022/12/24 07:11:33;;;;;;;3.53;3.22;;;;;;;;;;5034075;28;20049;-88
2022/12/24 07:14:00;;;;;;;4.55;4.20;;;;;;;;;;5034354;28;20194;-88
2022/12/24 07:16:26;;;;;;;2.83;2.70;;;;;;;;;;5034321;28;20046;-88
2022/12/24 07:18:54;;;;;;;5.00;4.28;;;;;;;;;;5047162;28;20049;-88
2022/12/24 07:21:21;;;;;;;6.38;5.97;;;;;;;;;;5053850;28;20057;-88
2022/12/24 07:23:47;;;;;;;8.20;7.60;;;;;;;;;;5053554;28;20107;-88
2022/12/24 07:26:13;;;;;;;5.72;5.40;;;;;;;;;;5054035;28;20453;-88
2022/12/24 07:28:40;;;;;;;11.75;10.80;;;;;;;;;;5053715;28;20053;-88
2022/12/24 07:31:06;;;;;;;7.82;7.18;;;;;;;;;;5054167;28;20103;-88
2022/12/24 07:33:33;;;;;;;3.92;3.63;;;;;;;;;;5048938;28;20053;-88
2022/12/24 07:36:02;;;;;;;6.53;5.93;;;;;;;;;;5053290;28;20076;-88
2022/12/24 07:38:29;;;;;;;6.35;5.90;;;;;;;;;;5053460;28;20114;-88
2022/12/24 07:40:56;;;;;;;5.20;4.85;;;;;;;;;;5053139;28;20549;-88
2022/12/24 07:43:22;;;;;;;7.60;7.13;;;;;;;;;;5053432;28;20053;-88
2022/12/24 07:45:49;;;;;;;14.75;5.85;;;;;;;;;;5053567;28;20421;-88
2022/12/24 07:48:16;;;;;;;3.72;3.50;;;;;;;;;;5053786;28;20102;-88
2022/12/24 07:50:43;;;;;;;4.22;4.00;;;;;;;;;;5036466;28;20107;-88
2022/12/24 07:53:10;;;;;;;7.90;3.90;;;;;;;;;;5032219;28;20084;-88
2022/12/24 07:55:37;;;;;;;8.55;7.72;;;;;;;;;;5033144;28;20049;-89
2022/12/24 07:58:03;;;;;;;9.20;8.30;;;;;;;;;;5033348;28;20050;-89
2022/12/24 08:00:30;;;;;;;8.98;7.05;;;;;;;;;;5033096;28;20538;-89
2022/12/24 08:02:58;;;;;;;4.88;4.53;;;;;;;;;;5033671;28;20045;-89
2022/12/24 08:05:25;;;;;;;8.45;7.80;;;;;;;;;;5034283;28;20103;-89
2022/12/24 08:07:51;;;;;;;8.55;6.78;;;;;;;;;;5052006;28;20461;-89
2022/12/24 08:10:19;;;;;;;5.38;5.07;;;;;;;;;;5053063;28;20110;-88
2022/12/24 08:12:47;;;;;;;5.53;5.03;;;;;;;;;;5053369;28;20048;-89
2022/12/24 08:15:13;;;;;;;8.60;5.05;;;;;;;;;;5053381;28;20083;-89
2022/12/24 08:17:40;;;;;;;4.75;4.35;;;;;;;;;;5052982;28;20502;-89
2022/12/24 08:20:07;;;;;;;4.38;4.07;;;;;;;;;;5053146;28;20041;-89
2022/12/24 08:22:34;;;;;;;2.38;2.25;;;;;;;;;;5051222;28;20045;-94
2022/12/24 08:25:00;;;;;;;7.30;4.40;;;;;;;;;;5053268;28;20053;-89
2022/12/24 08:27:28;;;;;;;5.32;4.38;;;;;;;;;;5053248;28;20049;-89
2022/12/24 08:29:54;;;;;;;6.03;5.55;;;;;;;;;;5053126;28;20118;-89
2022/12/24 08:32:21;;;;;;;5.28;5.05;;;;;;;;;;5046498;28;20040;-89
2022/12/24 08:34:48;;;;;;;6.15;5.45;;;;;;;;;;5041237;28;20053;-89
2022/12/24 08:37:14;;;;;;;4.53;3.92;;;;;;;;;;5032918;28;20053;-89
2022/12/24 08:39:40;;;;;;;8.55;3.13;;;;;;;;;;5032998;28;20041;-89
2022/12/24 08:42:07;;;;;;;5.05;4.72;;;;;;;;;;5032687;28;20572;-89
2022/12/24 08:44:35;;;;;;;7.20;6.30;;;;;;;;;;5032913;28;20053;-89
2022/12/24 08:47:01;;;;;;;6.38;5.78;;;;;;;;;;5032975;28;20054;-89
2022/12/24 08:49:28;;;;;;;5.05;4.75;;;;;;;;;;5032583;28;20050;-90
2022/12/24 08:51:54;;;;;;;2.35;2.20;;;;;;;;;;5032607;28;20553;-89
2022/12/24 08:54:22;;;;;;;7.15;5.25;;;;;;;;;;5032761;28;20103;-89
2022/12/24 08:56:48;;;;;;;5.93;5.43;;;;;;;;;;5032767;28;20136;-90
2022/12/24 08:59:15;;;;;;;6.05;5.50;;;;;;;;;;5032378;28;20491;-89
2022/12/24 09:01:43;;;;;;;3.10;2.97;;;;;;;;;;5040623;28;20046;-89
2022/12/24 09:04:09;;;;;;;3.85;3.65;;;;;;;;;;5044804;28;20107;-90
2022/12/24 09:06:36;;;;;;;6.43;5.97;;;;;;;;;;5056455;28;20045;-90
2022/12/24 09:09:03;;;;;;;7.00;4.72;;;;;;;;;;5056298;28;20053;-89
2022/12/24 09:11:30;;;;;;;6.40;5.85;;;;;;;;;;5056228;28;20056;-90
2022/12/24 09:13:56;;;;;;;8.20;6.40;;;;;;;;;;5056015;28;20460;-89
2022/12/24 09:16:23;;;;;;;6.22;5.72;;;;;;;;;;5056486;28;20107;-89
2022/12/24 09:18:50;;;;;;;5.57;5.25;;;;;;;;;;5056124;28;20052;-89
2022/12/24 09:21:17;;;;;;;5.97;5.43;;;;;;;;;;5056149;28;20057;-89
2022/12/24 09:23:45;;;;;;;4.82;4.43;;;;;;;;;;5055741;28;20048;-90
2022/12/24 09:26:14;;;;;;;4.82;4.50;;;;;;;;;;5055985;28;20068;-89
2022/12/24 09:28:40;;;;;;;4.63;4.15;;;;;;;;;;5057558;28;20049;-91
2022/12/24 09:31:08;;;;;;;4.78;4.53;;;;;;;;;;5051056;28;20053;-89
2022/12/24 09:33:35;;;;;;;7.32;6.85;;;;;;;;;;5036736;28;20437;-91
2022/12/24 09:36:04;;;;;;;22.25;14.20;;;;;;;;;;5036677;28;20053;-89
2022/12/24 09:38:30;;;;;;;5.93;5.50;;;;;;;;;;5036157;28;20046;-88
2022/12/24 09:40:57;;;;;;;13.52;12.27;;;;;;;;;;5035455;28;20050;-89
2022/12/24 09:43:26;;;;;;;16.35;7.78;;;;;;;;;;5035765;28;20049;-89
2022/12/24 09:45:58;;;;;;;6.57;6.10;;;;;;;;;;5036035;28;20053;-89
2022/12/24 09:48:25;;;;;;;9.93;8.75;;;;;;;;;;5039065;28;20454;-89
2022/12/24 09:50:53;;;;;;;7.82;5.70;;;;;;;;;;5055555;28;20053;-89
2022/12/24 09:53:24;;;;;;;8.43;7.90;;;;;;;;;;5055447;28;20048;-89
2022/12/24 09:55:52;;;;;;;5.97;5.55;;;;;;;;;;5055296;28;20494;-89
2022/12/24 09:58:22;;;;;;;10.07;9.02;;;;;;;;;;5055628;28;20053;-89
2022/12/24 10:00:49;;;;;;;10.82;8.65;;;;;;;;;;5055585;28;20045;-90
2022/12/24 10:03:16;;;;;;;9.65;8.85;;;;;;;;;;5055667;28;20057;-89
2022/12/24 10:05:45;;;;;;;15.00;10.23;;;;;;;;;;5047369;28;20049;-89
2022/12/24 10:08:17;;;;;;;9.77;7.95;;;;;;;;;;5035226;28;20110;-89
2022/12/24 10:10:43;;;;;;;;;;;;;;;;;;5035542;28;20107;-89
2022/12/24 10:13:15;;;;;;;16.90;8.52;;;;;;;;;;5035400;28;19971;-89
2022/12/24 10:15:47;;;;;;;27.95;13.25;;;;;;;;;;5034368;28;20054;-89
2022/12/24 10:18:20;;;;;;;10.30;7.10;;;;;;;;;;5035492;28;20049;-90
2022/12/24 10:20:48;;;;;;;12.02;8.52;;;;;;;;;;5034618;28;20124;-89
2022/12/24 10:23:20;;;;;;;6.03;5.53;;;;;;;;;;5034599;28;20560;-89
2022/12/24 10:25:49;;;;;;;5.97;5.47;;;;;;;;;;5034567;28;20103;-88
2022/12/24 10:28:18;;;;;;;8.43;7.55;;;;;;;;;;5034899;28;20384;-89
2022/12/24 10:30:48;;;;;;;5.43;5.03;;;;;;;;;;5035146;28;20049;-89
2022/12/24 10:33:16;;;;;;;9.75;7.18;;;;;;;;;;5034682;28;20060;-89
2022/12/24 10:35:46;;;;;;;4.30;4.00;;;;;;;;;;5034570;28;20426;-90
2022/12/24 10:38:12;;;;;;;8.27;7.50;;;;;;;;;;5046576;28;20510;-89
2022/12/24 10:40:41;;;;;;;8.70;7.97;;;;;;;;;;5054384;28;20045;-89
2022/12/24 10:43:11;;;;;;;8.05;7.38;;;;;;;;;;5054709;28;20045;-89
2022/12/24 10:45:41;;;;;;;8.00;7.40;;;;;;;;;;5054205;28;20052;-90
2022/12/24 10:48:11;;;;;;;5.80;5.40;;;;;;;;;;5054544;28;20102;-92
2022/12/24 10:50:40;;;;;;;6.88;6.03;;;;;;;;;;5054191;28;20048;-89
2022/12/24 10:53:13;;;;;;;10.95;7.03;;;;;;;;;;5054223;28;20110;-89
2022/12/24 10:55:39;;;;;;;10.10;8.38;;;;;;;;;;5054404;28;20122;-89
2022/12/24 10:58:07;;;;;;;7.13;6.25;;;;;;;;;;5054728;28;20048;-89
2022/12/24 11:00:35;;;;;;;4.78;4.03;;;;;;;;;;5054156;28;20049;-89
2022/12/24 11:03:21;;;;;;;6.82;6.25;;;;;;;;;;5054232;28;20494;-89
2022/12/24 11:05:58;;;;;;;5.28;4.35;;;;;;;;;;5047881;28;20053;-89
2022/12/24 11:08:25;;;;;;;6.90;6.32;;;;;;;;;;5053722;28;20053;-89
2022/12/24 11:10:54;;;;;;;11.35;9.63;;;;;;;;;;5054185;28;20091;-89
2022/12/24 11:13:23;;;;;;;6.60;6.03;;;;;;;;;;5053956;28;20552;-89
2022/12/24 11:15:51;;;;;;;6.13;5.50;;;;;;;;;;5053745;28;20049;-89
2022/12/24 11:18:19;;;;;;;4.85;4.35;;;;;;;;;;5053738;28;20091;-89
2022/12/24 11:20:49;;;;;;;4.85;3.13;;;;;;;;;;5051897;28;20049;-88
2022/12/24 11:23:16;;;;;;;5.60;5.13;;;;;;;;;;5031025;28;20672;-89
2022/12/24 11:25:46;;;;;;;8.88;7.95;;;;;;;;;;5035248;28;20417;-89
2022/12/24 11:28:19;;;;;;;6.60;5.78;;;;;;;;;;5013088;28;20484;-89
2022/12/24 11:30:55;;;;;;;4.70;4.28;;;;;;;;;;5013922;28;20486;-88
2022/12/24 11:33:23;;;;;;;4.07;3.80;;;;;;;;;;5013879;28;20053;-89
2022/12/24 11:35:54;;;;;;;8.55;5.68;;;;;;;;;;5013651;28;20050;-89
2022/12/24 11:38:21;;;;;;;;;;;;;;;;;;5014195;28;20050;-89
2022/12/24 11:40:48;;;;;;;8.90;4.47;;;;;;;;;;5013760;28;19928;-89
2022/12/24 11:43:16;;;;;;;10.32;9.38;;;;;;;;;;5014021;28;20107;-89
2022/12/24 11:45:48;;;;;;;4.80;4.10;;;;;;;;;;5013836;28;20141;-89
2022/12/24 11:48:25;;;;;;;8.80;8.15;;;;;;;;;;5013691;28;20335;-89
2022/12/24 11:50:55;;;;;;;3.75;3.45;;;;;;;;;;5013563;28;20459;-89
2022/12/24 11:53:25;;;;;;;7.95;7.15;;;;;;;;;;5013452;28;20157;-88
2022/12/24 11:55:53;;;;;;;6.30;5.70;;;;;;;;;;5013573;28;20192;-89
2022/12/24 11:58:25;;;;;;;5.47;4.90;;;;;;;;;;5047577;28;20053;-89
2022/12/24 12:00:53;;;;;;;3.17;2.97;;;;;;;;;;5053172;28;20045;-88
2022/12/24 12:03:30;;;;;;;4.93;4.45;;;;;;;;;;5033200;28;20158;-89
2022/12/24 12:05:58;;;;;;;6.72;5.13;;;;;;;;;;5033394;28;20049;-89
2022/12/24 12:08:26;;;;;;;7.07;3.63;;;;;;;;;;5033400;28;20053;-89
2022/12/24 12:10:53;;;;;;;5.15;4.72;;;;;;;;;;5033048;28;20492;-88
2022/12/24 12:13:22;;;;;;;4.13;3.80;;;;;;;;;;5032892;28;20098;-88
2022/12/24 12:15:51;;;;;;;4.13;3.50;;;;;;;;;;5032913;28;20054;-88
2022/12/24 12:18:20;;;;;;;4.15;3.85;;;;;;;;;;5032980;28;20049;-88
2022/12/24 12:20:50;;;;;;;6.47;5.95;;;;;;;;;;5032676;28;20104;-89
2022/12/24 12:23:20;;;;;;;3.33;3.13;;;;;;;;;;5032073;28;20447;-88
2022/12/24 12:25:50;;;;;;;7.07;6.07;;;;;;;;;;5033139;28;20103;-88
2022/12/24 12:28:20;;;;;;;4.28;3.88;;;;;;;;;;5032643;28;20055;-88
2022/12/24 12:30:53;;;;;;;5.28;4.90;;;;;;;;;;5028387;28;20053;-88
2022/12/24 12:33:25;;;;;;;6.68;6.07;;;;;;;;;;5032579;28;20065;-88
2022/12/24 12:35:55;;;;;;;5.15;4.82;;;;;;;;;;5032638;28;20046;-89
2022/12/24 12:38:22;;;;;;;5.47;3.88;;;;;;;;;;5032249;28;20533;-89
2022/12/24 12:40:56;;;;;;;3.20;2.95;;;;;;;;;;5032487;28;20045;-88
2022/12/24 12:43:32;;;;;;;5.43;4.57;;;;;;;;;;5031908;28;20050;-88
2022/12/24 12:46:02;;;;;;;8.20;5.15;;;;;;;;;;5032665;28;20045;-88
2022/12/24 12:48:39;;;;;;;6.53;6.03;;;;;;;;;;5032630;28;20049;-89
2022/12/24 12:51:08;;;;;;;4.00;3.70;;;;;;;;;;5032745;28;20392;-89
2022/12/24 12:53:47;;;;;;;8.80;4.93;;;;;;;;;;5032204;28;20049;-89
2022/12/24 12:56:22;;;;;;;4.55;4.18;;;;;;;;;;5040078;28;20053;-89
2022/12/24 12:58:52;;;;;;;5.35;4.95;;;;;;;;;;5051846;28;20053;-88
2022/12/24 13:01:21;;;;;;;5.80;3.97;;;;;;;;;;5052252;28;20053;-88
2022/12/24 13:04:01;;;;;;;5.60;5.22;;;;;;;;;;5052235;28;20087;-88
2022/12/24 13:06:46;;;;;;;9.40;6.28;;;;;;;;;;5052197;28;20506;-89
2022/12/24 13:09:26;;;;;;;4.63;4.18;;;;;;;;;;5051602;28;20045;-88
2022/12/24 13:12:03;;;;;;;3.58;3.30;;;;;;;;;;5052046;28;20057;-90
2022/12/24 13:14:41;;;;;;;6.10;5.70;;;;;;;;;;5033991;28;20045;-88
2022/12/24 13:17:21;;;;;;;5.90;5.50;;;;;;;;;;5031568;28;20446;-89
2022/12/24 13:20:01;;;;;;;6.70;5.43;;;;;;;;;;5032399;28;20103;-88
2022/12/24 13:22:28;;;;;;;6.75;6.07;;;;;;;;;;5032295;28;20434;-89
2022/12/24 13:24:56;;;;;;;2.72;2.60;;;;;;;;;;5031871;28;20053;-89
2022/12/24 13:27:24;;;;;;;15.32;7.35;;;;;;;;;;5032222;28;20045;-86
2022/12/24 13:29:52;;;;;;;9.60;7.72;;;;;;;;;;5045264;28;20053;-86
2022/12/24 13:32:37;;;;;;;8.20;7.38;;;;;;;;;;5051504;28;20132;-89
2022/12/24 13:35:24;;;;;;;9.80;6.45;;;;;;;;;;5051876;28;20049;-89
2022/12/24 13:37:51;;;;;;;10.90;10.15;;;;;;;;;;5051438;28;20109;-89
2022/12/24 13:40:23;;;;;;;8.27;7.55;;;;;;;;;;5052088;28;20049;-89
2022/12/24 13:42:51;;;;;;;9.05;8.35;;;;;;;;;;5051645;28;20060;-88
2022/12/24 13:45:37;;;;;;;10.05;7.85;;;;;;;;;;5043185;28;20053;-89
2022/12/24 13:48:14;;;;;;;8.07;7.40;;;;;;;;;;5031517;28;20071;-88
2022/12/24 13:50:41;;;;;;;4.18;3.92;;;;;;;;;;5033037;28;20057;-89
2022/12/24 13:53:21;;;;;;;6.55;5.20;;;;;;;;;;5035582;28;20053;-89
2022/12/24 13:55:51;;;;;;;8.65;7.97;;;;;;;;;;5035658;28;20049;-89
2022/12/24 13:58:19;;;;;;;10.20;9.00;;;;;;;;;;5035487;28;20476;-89
2022/12/24 14:00:53;;;;;;;15.02;7.05;;;;;;;;;;5035608;28;20053;-88
2022/12/24 14:03:28;;;;;;;6.43;5.82;;;;;;;;;;5043759;28;20045;-89
2022/12/24 14:05:56;;;;;;;7.35;6.63;;;;;;;;;;5054838;28;20052;-89
2022/12/24 14:08:28;;;;;;;7.93;6.20;;;;;;;;;;5060876;28;20069;-89
2022/12/24 14:11:02;;;;;;;19.38;9.15;;;;;;;;;;5055555;28;20110;-89
2022/12/24 14:13:43;;;;;;;7.05;6.45;;;;;;;;;;5055156;28;20118;-89
2022/12/24 14:16:12;;;;;;;8.73;7.70;;;;;;;;;;5054233;28;20056;-89
2022/12/24 14:18:39;;;;;;;12.68;8.43;;;;;;;;;;5053283;28;20053;-89
2022/12/24 14:21:07;;;;;;;11.15;6.53;;;;;;;;;;5038419;28;20061;-88
2022/12/24 14:23:37;;;;;;;8.60;7.80;;;;;;;;;;5034828;28;20053;-89
2022/12/24 14:26:11;;;;;;;6.97;6.45;;;;;;;;;;5034968;28;20053;-88
2022/12/24 14:28:41;;;;;;;4.72;4.35;;;;;;;;;;5035088;28;20057;-89
2022/12/24 14:31:13;;;;;;;9.45;5.18;;;;;;;;;;5034679;28;20767;-89
2022/12/24 14:33:40;;;;;;;6.68;3.70;;;;;;;;;;5035072;28;20042;-89
2022/12/24 14:36:07;;;;;;;4.85;4.55;;;;;;;;;;5035387;28;20099;-89
2022/12/24 14:38:34;;;;;;;6.35;5.85;;;;;;;;;;5034573;28;20054;-89
2022/12/24 14:41:04;;;;;;;11.32;7.28;;;;;;;;;;5034818;28;20462;-89
2022/12/24 14:43:46;;;;;;;4.60;4.32;;;;;;;;;;5034613;28;20053;-90
2022/12/24 14:46:16;;;;;;;7.15;6.55;;;;;;;;;;5034853;28;20777;-89
2022/12/24 14:48:47;;;;;;;5.70;5.28;;;;;;;;;;5034461;28;20111;-89
2022/12/24 14:51:17;;;;;;;9.48;7.18;;;;;;;;;;5036556;28;20094;-89
2022/12/24 14:53:52;;;;;;;6.57;5.07;;;;;;;;;;5014780;28;20054;-89
2022/12/24 14:56:21;;;;;;;6.28;5.50;;;;;;;;;;5014955;28;20054;-88